Prescott, AZ

1:53 AM MST on October 23, 2014 (GMT -0700)
Prescott Heights | Change Station
CLOSE
Current Station
Personal Weather Station
Location: Prescott, AZ
Elevation: 5305 ft
Nearby Weather Stations

Elev 5305 ft 34.55 °N, 112.47 °W | Updated 10 seconds ago

Clear
Clear
47.4 °F
Feels Like 47 °F
N
1.0
Wind Variable Wind from WSW
Gusts 5.0 mph

Today
High -- | Low -- °F
--% Chance of Precip.
Yesterday
High -- | Low -- °F
Precip. -- in
6:42 AM 5:45 PM
Waning Crescent, 0% visible
Pressure 30.02 in
Visibility 10.0 miles
Clouds Clear
Windchill 47 °F
Dew Point 34 °F
Humidity 59%
Rainfall 0.00 in
Snow Depth Not available.
UV 0 out of 12
Pollen 5.00 out of 12
Air Quality Not available.
Flu Activity No Activity
METAR KPRC 230753Z AUTO 17005KT 10SM CLR 11/03 A3020 RMK AO2 SLP164 T01060033

More Conditions Fewer Conditions

Pressure 30.02 in
Visibility 10.0 miles
Clouds Clear
Windchill 47 °F
Dew Point 34 °F
Humidity 59%
Rainfall 0.00 in
Snow Depth Not available.
UV 0 out of 12
Pollen 5.00 out of 12
Air Quality Not available.
Flu Activity No Activity
METAR KPRC 230753Z AUTO 17005KT 10SM CLR 11/03 A3020 RMK AO2 SLP164 T01060033

More Conditions Fewer Conditions

10-Day Weather Forecast

Almanac

Astronomy

Oct. 23, 2014 Rise Set
Actual Time 6:42 AM MST 5:45 PM MST
Civil Twilight 6:16 AM MST 6:11 PM MST
Nautical Twilight 5:47 AM MST 6:40 PM MST
Astronomical Twilight 5:17 AM MST 7:09 PM MST
Moon 6:26 AM MST 5:49 PM MST
Length of Visible Light 11h 54m
Length of Day
11h 03m
Tomorrow will be 2m 1s shorter.
Waning Crescent, 0% of the Moon is Illuminated
Today
Waning Crescent
Oct 23
New
Oct 30
First Quarter
Nov 6
Full
Nov 14
Last Quarter

Today's Extremes

State Highs State Lows

Community

WunderPhotos

Upload Photos

1,764,197 photos uploaded!

Nearby

Snow Depth

Station Depth Elevation
White Horse Lake 1 in 7180 ft
Mormon Mountain 0 in 7500 ft
Baker Butte 0 in 7300 ft
Happy Jack 0 in 7630 ft
Snowslide Canyon 0 in 9730 ft

Earthquake Activity

City Distance Mag. Time & Date
No recent earthquake activity has been reported nearby.
Minimum magnitude displayed is 2.5.

Coastal Water Temperatures

Place Temperature
No Stations Reporting

Nearby Weather Stations